Time;durP1;ratioP1;P1;durP2;ratioP2;P2;SDS_P1;SDS_P2;PMS_P1;PMS_P2;Temp;Humidity;BMP_temperature;BMP_pressure;BME280_temperature;BME280_humidity;BME280_pressure;Samples;Min_cycle;Max_cycle;Signal;HPM_P1;HPM_P2
2023/09/01 00:01:25;;;;;;;6.97;3.80;;;;;;;;;;5081100;28;20020;-55
2023/09/01 00:03:51;;;;;;;4.38;3.40;;;;;;;;;;5081020;28;20422;-56
2023/09/01 00:06:17;;;;;;;7.35;3.45;;;;;;;;;;5081137;28;20020;-54
2023/09/01 00:08:43;;;;;;;5.47;3.40;;;;;;;;;;5062872;28;20107;-55
2023/09/01 00:11:09;;;;;;;4.15;3.15;;;;;;;;;;5064616;28;20008;-51
2023/09/01 00:13:34;;;;;;;6.38;3.17;;;;;;;;;;5064432;28;20032;-51
2023/09/01 00:15:59;;;;;;;3.55;2.78;;;;;;;;;;5064677;28;20027;-54
2023/09/01 00:18:24;;;;;;;5.22;3.35;;;;;;;;;;5081156;28;20034;-54
2023/09/01 00:20:50;;;;;;;4.28;3.22;;;;;;;;;;5099029;28;20043;-56
2023/09/01 00:23:15;;;;;;;3.13;2.80;;;;;;;;;;5084779;28;20039;-54
2023/09/01 00:25:41;;;;;;;5.80;3.00;;;;;;;;;;5065855;28;20017;-53
2023/09/01 00:28:06;;;;;;;4.68;2.88;;;;;;;;;;5064537;28;20020;-54
2023/09/01 00:30:31;;;;;;;6.20;2.97;;;;;;;;;;5064138;28;20078;-54
2023/09/01 00:32:56;;;;;;;8.57;3.03;;;;;;;;;;5064176;28;20099;-55
2023/09/01 00:35:22;;;;;;;7.72;3.70;;;;;;;;;;5064058;28;20249;-51
2023/09/01 00:37:49;;;;;;;9.65;3.50;;;;;;;;;;5064108;28;20381;-52
2023/09/01 00:40:15;;;;;;;8.02;3.50;;;;;;;;;;5062947;28;20476;-54
2023/09/01 00:42:40;;;;;;;5.28;3.20;;;;;;;;;;5064639;28;20244;-51
2023/09/01 00:45:06;;;;;;;7.50;3.73;;;;;;;;;;5063735;28;20132;-52
2023/09/01 00:47:31;;;;;;;8.23;3.63;;;;;;;;;;5083677;28;20241;-53
2023/09/01 00:49:56;;;;;;;5.22;3.30;;;;;;;;;;5084306;28;20020;-51
2023/09/01 00:52:22;;;;;;;4.43;3.13;;;;;;;;;;5082600;28;20044;-56
2023/09/01 00:54:48;;;;;;;4.47;3.08;;;;;;;;;;5084095;28;20032;-54
2023/09/01 00:57:13;;;;;;;4.88;3.30;;;;;;;;;;5083720;28;20119;-53
2023/09/01 00:59:38;;;;;;;5.70;3.80;;;;;;;;;;5082989;28;20657;-52
2023/09/01 01:02:04;;;;;;;5.50;3.72;;;;;;;;;;5083773;28;20034;-54
2023/09/01 01:04:31;;;;;;;5.97;3.47;;;;;;;;;;5084157;28;20103;-53
2023/09/01 01:07:08;;;;;;;5.43;3.58;;;;;;;;;;5083706;28;20063;-54
2023/09/01 01:09:39;;;;;;;8.55;3.58;;;;;;;;;;5083449;28;20386;-54
2023/09/01 01:12:24;;;;;;;7.38;4.00;;;;;;;;;;5083667;28;20096;-54
2023/09/01 01:14:54;;;;;;;4.65;3.38;;;;;;;;;;5080133;28;20025;-55
2023/09/01 01:17:19;;;;;;;;;;;;;;;;;;5071158;28;20020;-53
2023/09/01 01:19:48;;;;;;;6.88;3.33;;;;;;;;;;5082986;28;20733;-52
2023/09/01 01:22:13;;;;;;;4.28;3.65;;;;;;;;;;5082960;28;20036;-53
2023/09/01 01:24:38;;;;;;;11.85;3.80;;;;;;;;;;5083679;28;20108;-53
2023/09/01 01:27:04;;;;;;;6.32;3.78;;;;;;;;;;5083175;28;20028;-55
2023/09/01 01:29:29;;;;;;;7.15;3.47;;;;;;;;;;5083313;28;20108;-55
2023/09/01 01:31:55;;;;;;;6.57;4.10;;;;;;;;;;5082510;28;20027;-55
2023/09/01 01:34:31;;;;;;;4.97;3.28;;;;;;;;;;5083230;28;20031;-54
2023/09/01 01:37:03;;;;;;;4.85;3.67;;;;;;;;;;5083040;28;20631;-51
2023/09/01 01:39:31;;;;;;;4.90;3.40;;;;;;;;;;5082569;28;20028;-54
2023/09/01 01:42:01;;;;;;;5.05;3.63;;;;;;;;;;5082365;28;20629;-53
2023/09/01 01:44:30;;;;;;;4.95;3.95;;;;;;;;;;5082757;28;20108;-54
2023/09/01 01:46:56;;;;;;;16.83;6.13;;;;;;;;;;5082381;28;20043;-49
2023/09/01 01:49:21;;;;;;;9.02;3.92;;;;;;;;;;5074613;28;20601;-53
2023/09/01 01:51:46;;;;;;;7.50;3.88;;;;;;;;;;5062234;28;20049;-56
2023/09/01 01:54:12;;;;;;;7.32;4.10;;;;;;;;;;5062232;28;20119;-54
2023/09/01 01:56:37;;;;;;;5.53;3.55;;;;;;;;;;5062050;28;20169;-51
2023/09/01 01:59:04;;;;;;;6.03;4.30;;;;;;;;;;5061955;28;20120;-54
2023/09/01 02:01:30;;;;;;;5.85;3.72;;;;;;;;;;5062112;28;20028;-54
2023/09/01 02:03:56;;;;;;;5.00;3.72;;;;;;;;;;5061925;28;20044;-52
2023/09/01 02:06:21;;;;;;;5.13;3.47;;;;;;;;;;5069198;28;20055;-54
2023/09/01 02:08:46;;;;;;;7.57;3.97;;;;;;;;;;5081701;28;21059;-52
2023/09/01 02:11:11;;;;;;;4.85;3.88;;;;;;;;;;5079946;28;20531;-49
2023/09/01 02:13:37;;;;;;;4.50;3.37;;;;;;;;;;5079571;28;20103;-53
2023/09/01 02:16:05;;;;;;;5.43;3.83;;;;;;;;;;5079665;28;20275;-54
2023/09/01 02:18:30;;;;;;;5.63;3.43;;;;;;;;;;5079170;28;20257;-51
2023/09/01 02:20:56;;;;;;;5.65;3.92;;;;;;;;;;5079557;28;20512;-55
2023/09/01 02:23:21;;;;;;;5.47;3.67;;;;;;;;;;5079044;28;20046;-53
2023/09/01 02:25:46;;;;;;;5.32;4.10;;;;;;;;;;5079360;28;20245;-52
2023/09/01 02:28:12;;;;;;;9.50;4.35;;;;;;;;;;5079589;28;20104;-54
2023/09/01 02:30:37;;;;;;;6.28;3.83;;;;;;;;;;5079315;28;20111;-54
2023/09/01 02:33:03;;;;;;;5.93;3.10;;;;;;;;;;5077871;28;20089;-53
2023/09/01 02:35:28;;;;;;;4.45;3.30;;;;;;;;;;5079525;28;20105;-52
2023/09/01 02:37:53;;;;;;;4.70;3.23;;;;;;;;;;5079462;28;20031;-54
2023/09/01 02:40:21;;;;;;;6.95;3.45;;;;;;;;;;5079048;28;20248;-55
2023/09/01 02:42:46;;;;;;;6.85;3.80;;;;;;;;;;5080683;28;20385;-55
2023/09/01 02:45:12;;;;;;;8.05;4.38;;;;;;;;;;5081814;28;20023;-54
2023/09/01 02:47:37;;;;;;;14.52;4.43;;;;;;;;;;5081348;28;20032;-54
2023/09/01 02:50:04;;;;;;;5.18;4.05;;;;;;;;;;5081990;28;20008;-54
2023/09/01 02:52:29;;;;;;;6.95;4.25;;;;;;;;;;5081914;28;20072;-54
2023/09/01 02:54:55;;;;;;;5.10;4.05;;;;;;;;;;5081458;28;20055;-51
2023/09/01 02:57:20;;;;;;;4.80;3.25;;;;;;;;;;5074055;28;20087;-54
2023/09/01 02:59:46;;;;;;;9.05;3.88;;;;;;;;;;5061485;28;20031;-51
2023/09/01 03:02:11;;;;;;;7.47;4.15;;;;;;;;;;5061693;28;20028;-53
2023/09/01 03:04:37;;;;;;;10.30;4.97;;;;;;;;;;5061773;28;20020;-53
2023/09/01 03:07:02;;;;;;;10.77;4.53;;;;;;;;;;5060074;28;20569;-53
2023/09/01 03:09:27;;;;;;;5.75;4.05;;;;;;;;;;5060929;28;20028;-53
2023/09/01 03:11:53;;;;;;;5.35;3.88;;;;;;;;;;5061651;28;20039;-52
2023/09/01 03:14:18;;;;;;;10.98;4.05;;;;;;;;;;5068225;28;20019;-57
2023/09/01 03:16:43;;;;;;;7.50;4.07;;;;;;;;;;5081602;28;20726;-54
2023/09/01 03:19:09;;;;;;;6.20;3.80;;;;;;;;;;5081099;28;20077;-56
2023/09/01 03:21:34;;;;;;;7.88;4.28;;;;;;;;;;5081318;28;20218;-54
2023/09/01 03:23:59;;;;;;;8.15;3.63;;;;;;;;;;5081309;28;20077;-55
2023/09/01 03:26:25;;;;;;;5.35;3.58;;;;;;;;;;5081364;28;20016;-54
2023/09/01 03:28:50;;;;;;;7.90;4.38;;;;;;;;;;5081311;28;20023;-52
2023/09/01 03:31:15;;;;;;;8.15;4.95;;;;;;;;;;5074422;28;20494;-54
2023/09/01 03:33:41;;;;;;;7.95;4.20;;;;;;;;;;5060767;28;20117;-52
2023/09/01 03:36:09;;;;;;;5.75;4.43;;;;;;;;;;5058631;28;20629;-52
2023/09/01 03:38:35;;;;;;;8.93;4.05;;;;;;;;;;5058432;28;20381;-53
2023/09/01 03:41:01;;;;;;;7.32;4.60;;;;;;;;;;5057908;28;20020;-56
2023/09/01 03:43:26;;;;;;;11.55;4.28;;;;;;;;;;5057921;28;20212;-52
2023/09/01 03:45:51;;;;;;;8.53;4.77;;;;;;;;;;5060602;28;20028;-54
2023/09/01 03:48:16;;;;;;;14.75;4.85;;;;;;;;;;5073446;28;20279;-51
2023/09/01 03:50:42;;;;;;;19.20;5.65;;;;;;;;;;5082112;28;20107;-54
2023/09/01 03:53:07;;;;;;;12.97;4.87;;;;;;;;;;5081870;28;20668;-50
2023/09/01 03:55:32;;;;;;;9.73;4.25;;;;;;;;;;5082136;28;20268;-51
2023/09/01 03:57:59;;;;;;;12.30;4.63;;;;;;;;;;5081830;28;20507;-55
2023/09/01 04:00:25;;;;;;;7.50;3.90;;;;;;;;;;5082237;28;20012;-52
2023/09/01 04:02:50;;;;;;;6.47;4.30;;;;;;;;;;5082187;28;20106;-51
2023/09/01 04:05:15;;;;;;;4.93;3.90;;;;;;;;;;5081413;28;20031;-55
2023/09/01 04:07:41;;;;;;;8.55;3.53;;;;;;;;;;5081675;28;20103;-54
2023/09/01 04:10:06;;;;;;;8.75;4.22;;;;;;;;;;5082419;28;20115;-54
2023/09/01 04:12:32;;;;;;;6.55;4.07;;;;;;;;;;5080452;28;20040;-55
2023/09/01 04:14:57;;;;;;;10.32;4.47;;;;;;;;;;5084277;28;20035;-52
2023/09/01 04:17:22;;;;;;;7.35;4.45;;;;;;;;;;5084334;28;20111;-54
2023/09/01 04:19:47;;;;;;;10.85;4.68;;;;;;;;;;5084283;28;20645;-55
2023/09/01 04:22:13;;;;;;;10.20;4.17;;;;;;;;;;5078066;28;20082;-56
2023/09/01 04:24:38;;;;;;;11.57;4.20;;;;;;;;;;5064371;28;20253;-55
2023/09/01 04:27:03;;;;;;;11.82;4.50;;;;;;;;;;5063209;28;20093;-51
2023/09/01 04:29:29;;;;;;;6.85;3.92;;;;;;;;;;5064086;28;20022;-55
2023/09/01 04:31:54;;;;;;;5.30;4.47;;;;;;;;;;5062945;28;20886;-51
2023/09/01 04:34:20;;;;;;;8.65;4.45;;;;;;;;;;5064204;28;20091;-51
2023/09/01 04:36:48;;;;;;;6.88;4.18;;;;;;;;;;5062648;28;20040;-54
2023/09/01 04:39:14;;;;;;;8.15;4.82;;;;;;;;;;5064670;28;20043;-56
2023/09/01 04:41:40;;;;;;;7.35;4.20;;;;;;;;;;5063576;28;20025;-51
2023/09/01 04:44:05;;;;;;;6.55;3.90;;;;;;;;;;5063826;28;20517;-51
2023/09/01 04:46:31;;;;;;;10.02;5.00;;;;;;;;;;5063909;28;20103;-52
2023/09/01 04:48:56;;;;;;;18.10;6.05;;;;;;;;;;5064710;28;20035;-53
2023/09/01 04:51:21;;;;;;;14.90;5.85;;;;;;;;;;5083668;28;20458;-54
2023/09/01 04:53:47;;;;;;;19.42;6.22;;;;;;;;;;5083588;28;20097;-53
2023/09/01 04:56:12;;;;;;;19.17;6.43;;;;;;;;;;5076848;28;20603;-52
2023/09/01 04:58:37;;;;;;;16.45;6.32;;;;;;;;;;5063649;28;20035;-51
2023/09/01 05:01:02;;;;;;;18.70;6.07;;;;;;;;;;5063759;28;20451;-53
2023/09/01 05:03:28;;;;;;;12.02;6.57;;;;;;;;;;5063366;28;20032;-53
2023/09/01 05:05:53;;;;;;;12.18;5.13;;;;;;;;;;5063683;28;20733;-54
2023/09/01 05:08:18;;;;;;;11.43;5.70;;;;;;;;;;5063511;28;20019;-51
2023/09/01 05:10:44;;;;;;;14.30;6.28;;;;;;;;;;5061915;28;20658;-54
2023/09/01 05:13:09;;;;;;;17.25;5.70;;;;;;;;;;5058031;28;20040;-52
2023/09/01 05:15:35;;;;;;;11.50;5.45;;;;;;;;;;5060801;28;20028;-55
2023/09/01 05:18:00;;;;;;;15.55;5.65;;;;;;;;;;5069706;28;20023;-53
2023/09/01 05:20:25;;;;;;;9.45;5.40;;;;;;;;;;5060527;28;20489;-53
2023/09/01 05:22:51;;;;;;;10.98;5.38;;;;;;;;;;5060278;28;20509;-51
2023/09/01 05:25:16;;;;;;;13.50;5.10;;;;;;;;;;5041018;28;20037;-55
2023/09/01 05:27:43;;;;;;;8.15;4.20;;;;;;;;;;5060341;28;20025;-52
2023/09/01 05:30:08;;;;;;;7.35;5.05;;;;;;;;;;5060952;28;20033;-54
2023/09/01 05:32:34;;;;;;;9.20;3.55;;;;;;;;;;5060547;28;20025;-55
2023/09/01 05:34:59;;;;;;;11.85;5.47;;;;;;;;;;5073162;28;20009;-54
2023/09/01 05:37:24;;;;;;;19.45;9.02;;;;;;;;;;5080449;28;20031;-57
2023/09/01 05:39:49;;;;;;;23.88;9.98;;;;;;;;;;5081050;28;20024;-51
2023/09/01 05:42:15;;;;;;;10.73;5.37;;;;;;;;;;5081205;28;20051;-53
2023/09/01 05:44:41;;;;;;;6.00;4.63;;;;;;;;;;5080497;28;20245;-55
2023/09/01 05:47:06;;;;;;;11.65;4.50;;;;;;;;;;5079914;28;20252;-51
2023/09/01 05:49:32;;;;;;;6.97;3.53;;;;;;;;;;5076563;28;20476;-52
2023/09/01 05:51:57;;;;;;;9.13;3.50;;;;;;;;;;5073354;28;20368;-52
2023/09/01 05:54:22;;;;;;;8.80;3.88;;;;;;;;;;5063424;28;20165;-54
2023/09/01 05:56:48;;;;;;;10.77;3.90;;;;;;;;;;5094027;28;20036;-54
2023/09/01 05:59:13;;;;;;;13.60;3.67;;;;;;;;;;5075721;28;20052;-54
2023/09/01 06:01:39;;;;;;;7.97;3.50;;;;;;;;;;5076977;28;20257;-53
2023/09/01 06:04:04;;;;;;;7.22;2.65;;;;;;;;;;5071226;28;20268;-53
2023/09/01 06:06:31;;;;;;;7.13;3.10;;;;;;;;;;5068427;28;20053;-55
2023/09/01 06:08:56;;;;;;;5.95;2.55;;;;;;;;;;5070445;28;20055;-52
2023/09/01 06:11:22;;;;;;;10.77;2.85;;;;;;;;;;5081397;28;20058;-54
2023/09/01 06:13:49;;;;;;;7.63;2.78;;;;;;;;;;5080888;28;20116;-56
2023/09/01 06:16:14;;;;;;;5.07;2.25;;;;;;;;;;5072974;28;20027;-54
2023/09/01 06:18:39;;;;;;;3.80;2.20;;;;;;;;;;5062453;28;20032;-54
2023/09/01 06:21:05;;;;;;;4.10;2.57;;;;;;;;;;5073563;28;20448;-52
2023/09/01 06:23:30;;;;;;;3.53;2.35;;;;;;;;;;5077622;28;20027;-53
2023/09/01 06:25:55;;;;;;;5.00;2.13;;;;;;;;;;5065659;28;20132;-52
2023/09/01 06:28:20;;;;;;;5.47;2.67;;;;;;;;;;5074622;28;20683;-51
2023/09/01 06:30:46;;;;;;;4.73;2.03;;;;;;;;;;5074974;28;20421;-53
2023/09/01 06:33:11;;;;;;;4.87;2.30;;;;;;;;;;5074334;28;20281;-55
2023/09/01 06:35:37;;;;;;;3.47;2.30;;;;;;;;;;5078827;28;20280;-52
2023/09/01 06:38:04;;;;;;;2.53;1.63;;;;;;;;;;5075791;28;20273;-54
2023/09/01 06:40:30;;;;;;;6.25;1.77;;;;;;;;;;5075383;28;20032;-51
2023/09/01 06:42:55;;;;;;;3.80;2.05;;;;;;;;;;5074232;28;20054;-53
2023/09/01 06:45:20;;;;;;;4.43;1.70;;;;;;;;;;5077803;28;20024;-53
2023/09/01 06:47:46;;;;;;;3.00;1.90;;;;;;;;;;5070996;28;20433;-54
2023/09/01 06:50:12;;;;;;;2.55;1.88;;;;;;;;;;5075700;28;20119;-55
2023/09/01 06:52:37;;;;;;;2.97;1.90;;;;;;;;;;5075354;28;20135;-53
2023/09/01 06:55:02;;;;;;;2.80;1.50;;;;;;;;;;5074373;28;20603;-54
2023/09/01 06:57:28;;;;;;;3.10;1.50;;;;;;;;;;5075615;28;20036;-53
2023/09/01 06:59:53;;;;;;;5.40;2.22;;;;;;;;;;5074695;28;20030;-53
2023/09/01 07:02:18;;;;;;;4.53;1.87;;;;;;;;;;5073922;28;20446;-54
2023/09/01 07:04:44;;;;;;;2.38;1.52;;;;;;;;;;5076051;28;20008;-53
2023/09/01 07:07:09;;;;;;;6.67;1.53;;;;;;;;;;5060951;28;20118;-54
2023/09/01 07:09:34;;;;;;;4.40;1.90;;;;;;;;;;5072470;28;20946;-55
2023/09/01 07:12:00;;;;;;;2.13;1.80;;;;;;;;;;5063271;28;20012;-54
2023/09/01 07:14:25;;;;;;;2.20;1.48;;;;;;;;;;5067288;28;20716;-53
2023/09/01 07:16:50;;;;;;;2.22;1.50;;;;;;;;;;5069721;28;20624;-52
2023/09/01 07:19:15;;;;;;;1.93;1.40;;;;;;;;;;5069996;28;20023;-55
2023/09/01 07:21:41;;;;;;;3.90;1.50;;;;;;;;;;5078417;28;20024;-55
2023/09/01 07:24:06;;;;;;;2.20;1.30;;;;;;;;;;5072268;28;20264;-55
2023/09/01 07:26:31;;;;;;;3.55;2.10;;;;;;;;;;5076097;28;20026;-53
2023/09/01 07:28:57;;;;;;;3.10;1.50;;;;;;;;;;5089026;28;20046;-56
2023/09/01 07:31:23;;;;;;;4.33;1.93;;;;;;;;;;5081105;28;20165;-52
2023/09/01 07:33:48;;;;;;;3.38;1.75;;;;;;;;;;5081016;28;20461;-57
2023/09/01 07:36:14;;;;;;;2.30;1.63;;;;;;;;;;5081283;28;20028;-52
2023/09/01 07:38:39;;;;;;;3.00;1.48;;;;;;;;;;5080962;28;20111;-57
2023/09/01 07:41:05;;;;;;;4.40;1.70;;;;;;;;;;5080820;28;20056;-55
2023/09/01 07:43:31;;;;;;;2.13;1.25;;;;;;;;;;5080454;28;20020;-55
2023/09/01 07:45:56;;;;;;;3.47;1.50;;;;;;;;;;5076424;28;20471;-55
2023/09/01 07:48:22;;;;;;;2.42;1.73;;;;;;;;;;5060564;28;20025;-51
2023/09/01 07:50:48;;;;;;;1.97;1.60;;;;;;;;;;5062001;28;20029;-55
2023/09/01 07:53:13;;;;;;;4.30;1.60;;;;;;;;;;5060444;28;20048;-53
2023/09/01 07:55:38;;;;;;;3.93;1.90;;;;;;;;;;5075938;28;20663;-53
2023/09/01 07:58:04;;;;;;;2.20;1.60;;;;;;;;;;5080616;28;20272;-53
2023/09/01 08:00:29;;;;;;;2.10;1.47;;;;;;;;;;5072957;28;20025;-56
2023/09/01 08:02:55;;;;;;;1.50;1.27;;;;;;;;;;5061311;28;20108;-55
2023/09/01 08:05:21;;;;;;;3.80;1.70;;;;;;;;;;5060751;28;20028;-56
2023/09/01 08:07:46;;;;;;;2.60;1.70;;;;;;;;;;5072549;28;20032;-52
2023/09/01 08:10:12;;;;;;;2.65;1.60;;;;;;;;;;5080629;28;20614;-53
2023/09/01 08:12:37;;;;;;;2.67;2.20;;;;;;;;;;5080492;28;20081;-56
2023/09/01 08:15:02;;;;;;;4.50;2.23;;;;;;;;;;5080316;28;20082;-55
2023/09/01 08:17:28;;;;;;;5.07;2.30;;;;;;;;;;5079812;28;20260;-55
2023/09/01 08:19:53;;;;;;;3.90;2.47;;;;;;;;;;5073022;28;20078;-56
2023/09/01 08:22:18;;;;;;;5.17;1.87;;;;;;;;;;5069321;28;20047;-57
2023/09/01 08:24:44;;;;;;;3.30;1.67;;;;;;;;;;5080466;28;20373;-54
2023/09/01 08:27:09;;;;;;;3.92;1.65;;;;;;;;;;5080299;28;20804;-56
2023/09/01 08:29:35;;;;;;;4.20;2.00;;;;;;;;;;5080566;28;20131;-56
2023/09/01 08:32:01;;;;;;;7.78;1.70;;;;;;;;;;5083939;28;20019;-53
2023/09/01 08:34:29;;;;;;;2.50;1.50;;;;;;;;;;5077013;28;20056;-54
2023/09/01 08:36:54;;;;;;;6.13;1.55;;;;;;;;;;5080195;28;20031;-52
2023/09/01 08:39:20;;;;;;;8.63;1.67;;;;;;;;;;5081645;28;20032;-51
2023/09/01 08:41:47;;;;;;;4.13;1.60;;;;;;;;;;5083111;28;20331;-54
2023/09/01 08:44:13;;;;;;;3.25;1.35;;;;;;;;;;5066696;28;20051;-57
2023/09/01 08:46:39;;;;;;;3.17;1.20;;;;;;;;;;5072303;28;20032;-53
2023/09/01 08:49:04;;;;;;;1.52;1.10;;;;;;;;;;5065963;28;20021;-55
2023/09/01 08:51:30;;;;;;;2.22;1.25;;;;;;;;;;5071842;28;20980;-54
2023/09/01 08:53:56;;;;;;;3.67;1.40;;;;;;;;;;5079320;28;20059;-53
2023/09/01 08:56:21;;;;;;;2.50;1.50;;;;;;;;;;5072097;28;20090;-56
2023/09/01 08:58:48;;;;;;;1.50;1.10;;;;;;;;;;5076756;28;20822;-56
2023/09/01 09:01:14;;;;;;;6.97;2.40;;;;;;;;;;5073205;28;20036;-53
2023/09/01 09:03:39;;;;;;;3.83;1.40;;;;;;;;;;5056530;28;20261;-55
2023/09/01 09:06:05;;;;;;;2.33;1.38;;;;;;;;;;5069974;28;20539;-52
2023/09/01 09:08:30;;;;;;;3.38;1.45;;;;;;;;;;5082922;28;20020;-56
2023/09/01 09:10:55;;;;;;;2.05;1.20;;;;;;;;;;5079056;28;20098;-55
2023/09/01 09:13:28;;;;;;;4.07;1.37;;;;;;;;;;5063046;28;20555;-55
2023/09/01 09:16:12;;;;;;;3.08;1.30;;;;;;;;;;5062939;28;20009;-55
2023/09/01 09:18:39;;;;;;;4.25;1.50;;;;;;;;;;5063179;28;20089;-55
2023/09/01 09:21:04;;;;;;;7.07;1.63;;;;;;;;;;5062930;28;20028;-54
2023/09/01 09:23:43;;;;;;;3.85;1.60;;;;;;;;;;5062855;28;20036;-55
2023/09/01 09:26:09;;;;;;;2.08;1.40;;;;;;;;;;5063160;28;20107;-54
2023/09/01 09:28:34;;;;;;;2.55;1.77;;;;;;;;;;5072460;28;20525;-55
2023/09/01 09:31:00;;;;;;;1.37;1.20;;;;;;;;;;5082990;28;20020;-53
2023/09/01 09:33:29;;;;;;;10.75;1.35;;;;;;;;;;5082673;28;20287;-55
2023/09/01 09:35:54;;;;;;;2.92;1.52;;;;;;;;;;5082633;28;20008;-56
2023/09/01 09:38:20;;;;;;;1.90;1.10;;;;;;;;;;5083137;28;20027;-52
2023/09/01 09:41:01;;;;;;;2.22;1.00;;;;;;;;;;5079615;28;20776;-53
2023/09/01 09:43:27;;;;;;;3.72;1.70;;;;;;;;;;5081901;28;20020;-54
2023/09/01 09:45:53;;;;;;;4.15;1.50;;;;;;;;;;5070555;28;20048;-56
2023/09/01 09:48:18;;;;;;;2.45;1.70;;;;;;;;;;5062708;28;20019;-53
2023/09/01 09:50:45;;;;;;;7.55;1.40;;;;;;;;;;5082756;28;20107;-53
2023/09/01 09:53:12;;;;;;;5.15;1.70;;;;;;;;;;5082414;28;20888;-56
2023/09/01 09:55:46;;;;;;;7.05;1.45;;;;;;;;;;5082398;28;20045;-53
2023/09/01 09:58:12;;;;;;;3.00;1.40;;;;;;;;;;5082568;28;20039;-56
2023/09/01 10:01:04;;;;;;;2.60;1.48;;;;;;;;;;5082456;28;20539;-51
2023/09/01 10:03:29;;;;;;;9.30;2.45;;;;;;;;;;5058977;28;20032;-52
2023/09/01 10:05:55;;;;;;;3.55;1.50;;;;;;;;;;5058985;28;20029;-56
2023/09/01 10:08:21;;;;;;;4.10;1.42;;;;;;;;;;5059141;28;20028;-56
2023/09/01 10:10:46;;;;;;;4.15;1.40;;;;;;;;;;5025254;28;20035;-56
2023/09/01 10:13:12;;;;;;;6.05;1.42;;;;;;;;;;5058850;28;20580;-51
2023/09/01 10:15:38;;;;;;;2.63;1.33;;;;;;;;;;5058898;28;20044;-53
2023/09/01 10:18:04;;;;;;;3.63;1.10;;;;;;;;;;5058030;28;20390;-54
2023/09/01 10:20:50;;;;;;;2.10;1.40;;;;;;;;;;5049055;28;20040;-54
2023/09/01 10:23:15;;;;;;;3.78;1.35;;;;;;;;;;5051253;28;20024;-55
2023/09/01 10:25:40;;;;;;;3.78;1.52;;;;;;;;;;5056742;28;20078;-56
2023/09/01 10:28:13;;;;;;;3.42;1.30;;;;;;;;;;5051437;28;20862;-51
2023/09/01 10:30:40;;;;;;;2.03;1.40;;;;;;;;;;5045407;28;20028;-56
2023/09/01 10:33:15;;;;;;;2.33;1.58;;;;;;;;;;5058563;28;20040;-53
2023/09/01 10:35:42;;;;;;;4.60;1.70;;;;;;;;;;5050623;28;20100;-54
2023/09/01 10:38:15;;;;;;;2.25;1.30;;;;;;;;;;5046498;28;20032;-51
2023/09/01 10:40:41;;;;;;;4.15;1.38;;;;;;;;;;5057983;28;20032;-54
2023/09/01 10:43:06;;;;;;;3.40;1.35;;;;;;;;;;5060179;28;20024;-54
2023/09/01 10:45:32;;;;;;;1.50;1.40;;;;;;;;;;5064822;28;20024;-56
2023/09/01 10:47:57;;;;;;;2.35;1.00;;;;;;;;;;5076454;28;20441;-55
2023/09/01 10:50:23;;;;;;;3.27;1.30;;;;;;;;;;5071253;28;20013;-54
2023/09/01 10:53:07;;;;;;;1.75;1.30;;;;;;;;;;5073306;28;20055;-55
2023/09/01 10:55:34;;;;;;;1.85;1.58;;;;;;;;;;5070716;28;20050;-54
2023/09/01 10:58:07;;;;;;;6.75;2.10;;;;;;;;;;5076404;28;20028;-56
2023/09/01 11:00:33;;;;;;;2.05;1.50;;;;;;;;;;5079703;28;20116;-55
2023/09/01 11:03:17;;;;;;;3.20;1.70;;;;;;;;;;5064957;28;20517;-56
2023/09/01 11:05:43;;;;;;;2.40;1.50;;;;;;;;;;5071537;28;20375;-51
2023/09/01 11:08:09;;;;;;;2.70;1.42;;;;;;;;;;5068763;28;20044;-51
2023/09/01 11:10:34;;;;;;;2.05;1.23;;;;;;;;;;5070828;28;20056;-53
2023/09/01 11:12:59;;;;;;;3.70;1.70;;;;;;;;;;5062154;28;20052;-51
2023/09/01 11:15:25;;;;;;;2.17;1.38;;;;;;;;;;5069589;28;20264;-55
2023/09/01 11:17:50;;;;;;;4.53;1.40;;;;;;;;;;5076656;28;20412;-55
2023/09/01 11:20:19;;;;;;;4.05;1.30;;;;;;;;;;5076763;28;20504;-54
2023/09/01 11:22:45;;;;;;;2.58;1.25;;;;;;;;;;5077967;28;20423;-53
2023/09/01 11:25:14;;;;;;;4.63;1.60;;;;;;;;;;5081560;28;20094;-54
2023/09/01 11:27:46;;;;;;;9.75;1.55;;;;;;;;;;5071734;28;20131;-54
2023/09/01 11:30:12;;;;;;;2.88;1.58;;;;;;;;;;5076885;28;22205;-54
2023/09/01 11:32:37;;;;;;;2.53;1.50;;;;;;;;;;5066024;28;20088;-56
2023/09/01 11:35:03;;;;;;;3.42;1.48;;;;;;;;;;5070141;28;20119;-52
2023/09/01 11:37:41;;;;;;;1.98;1.50;;;;;;;;;;5073618;28;20039;-49
2023/09/01 11:40:12;;;;;;;4.70;1.65;;;;;;;;;;5070938;28;20043;-53
2023/09/01 11:42:38;;;;;;;4.15;1.52;;;;;;;;;;5053555;28;20432;-52
2023/09/01 11:45:05;;;;;;;2.30;1.58;;;;;;;;;;5056592;28;20459;-50
2023/09/01 11:47:30;;;;;;;4.55;1.70;;;;;;;;;;5073174;28;20029;-54
2023/09/01 11:49:55;;;;;;;2.28;1.60;;;;;;;;;;5061598;28;20110;-55
2023/09/01 11:52:21;;;;;;;4.40;1.33;;;;;;;;;;5066078;28;20085;-54
2023/09/01 11:54:46;;;;;;;2.57;1.50;;;;;;;;;;5068244;28;20358;-53
2023/09/01 11:57:12;;;;;;;2.00;1.40;;;;;;;;;;5080374;28;20783;-53
2023/09/01 11:59:43;;;;;;;4.10;2.15;;;;;;;;;;5076558;28;20033;-54
2023/09/01 12:02:09;;;;;;;2.33;1.33;;;;;;;;;;5060362;28;20110;-53
2023/09/01 12:04:43;;;;;;;4.80;2.50;;;;;;;;;;5058604;28;20020;-52
2023/09/01 12:07:09;;;;;;;5.30;1.70;;;;;;;;;;5072989;28;20119;-54
2023/09/01 12:09:34;;;;;;;3.30;1.87;;;;;;;;;;5054059;28;20173;-53
2023/09/01 12:12:02;;;;;;;4.43;1.95;;;;;;;;;;5077549;28;21220;-49
2023/09/01 12:14:28;;;;;;;7.95;2.60;;;;;;;;;;5067904;28;20060;-53
2023/09/01 12:16:54;;;;;;;5.20;1.80;;;;;;;;;;5079086;28;20473;-50
2023/09/01 12:19:23;;;;;;;3.85;1.60;;;;;;;;;;5079299;28;20032;-52
2023/09/01 12:21:49;;;;;;;1.83;1.60;;;;;;;;;;5070706;28;20493;-55
2023/09/01 12:24:14;;;;;;;2.10;1.40;;;;;;;;;;5080141;28;20016;-54
2023/09/01 12:26:39;;;;;;;5.13;1.53;;;;;;;;;;5071135;28;20024;-55
2023/09/01 12:29:04;;;;;;;3.30;1.60;;;;;;;;;;5078062;28;20016;-54
2023/09/01 12:31:30;;;;;;;2.10;1.40;;;;;;;;;;5076894;28;20277;-57
2023/09/01 12:33:55;;;;;;;4.33;1.43;;;;;;;;;;5078431;28;20417;-53
2023/09/01 12:36:20;;;;;;;2.00;1.37;;;;;;;;;;5078426;28;20024;-54
2023/09/01 12:38:45;;;;;;;2.60;1.43;;;;;;;;;;5078475;28;20681;-53
2023/09/01 12:41:11;;;;;;;4.03;1.67;;;;;;;;;;5074228;28;20287;-53
2023/09/01 12:43:36;;;;;;;2.90;1.55;;;;;;;;;;5097488;28;20314;-53
2023/09/01 12:46:01;;;;;;;4.73;1.40;;;;;;;;;;5084144;28;20024;-56
2023/09/01 12:48:27;;;;;;;2.47;1.67;;;;;;;;;;5075916;28;20273;-52
2023/09/01 12:50:52;;;;;;;2.00;1.42;;;;;;;;;;5081624;28;20112;-53
2023/09/01 12:53:17;;;;;;;2.38;1.50;;;;;;;;;;5068465;28;20076;-54
2023/09/01 12:55:45;;;;;;;5.95;1.52;;;;;;;;;;5077231;28;20012;-55
2023/09/01 12:58:10;;;;;;;2.83;1.38;;;;;;;;;;5072642;28;20082;-56
2023/09/01 13:00:36;;;;;;;4.13;1.40;;;;;;;;;;5079064;28;20024;-53
2023/09/01 13:03:02;;;;;;;5.40;1.60;;;;;;;;;;5079549;28;20024;-54
2023/09/01 13:05:29;;;;;;;2.65;1.45;;;;;;;;;;5081819;28;20651;-52
2023/09/01 13:07:54;;;;;;;2.10;1.55;;;;;;;;;;5080396;28;20020;-53
2023/09/01 13:10:20;;;;;;;4.35;1.27;;;;;;;;;;5078330;28;20066;-53
2023/09/01 13:12:46;;;;;;;3.35;1.23;;;;;;;;;;5076866;28;20023;-53
2023/09/01 13:15:12;;;;;;;8.02;1.60;;;;;;;;;;5079948;28;20369;-53
2023/09/01 13:17:39;;;;;;;2.00;1.60;;;;;;;;;;5071083;28;20028;-55
2023/09/01 13:20:05;;;;;;;1.50;1.40;;;;;;;;;;5081468;28;20457;-55
2023/09/01 13:22:31;;;;;;;3.40;1.90;;;;;;;;;;5076986;28;20119;-55
2023/09/01 13:24:56;;;;;;;1.63;1.35;;;;;;;;;;5076619;28;20082;-55
2023/09/01 13:27:22;;;;;;;1.70;1.60;;;;;;;;;;5080184;28;20033;-52
2023/09/01 13:29:48;;;;;;;3.53;1.60;;;;;;;;;;5075287;28;20111;-50
2023/09/01 13:32:13;;;;;;;10.80;2.10;;;;;;;;;;5078506;28;20538;-53
2023/09/01 13:34:39;;;;;;;2.65;1.35;;;;;;;;;;5077459;28;20400;-53
2023/09/01 13:37:09;;;;;;;2.93;1.47;;;;;;;;;;5072442;28;20035;-53
2023/09/01 13:39:35;;;;;;;2.22;1.70;;;;;;;;;;5073384;28;20671;-51
2023/09/01 13:42:00;;;;;;;1.57;1.30;;;;;;;;;;5099520;28;20024;-53
2023/09/01 13:44:26;;;;;;;3.37;1.50;;;;;;;;;;5068386;28;20328;-55
2023/09/01 13:46:51;;;;;;;4.88;1.88;;;;;;;;;;5064914;28;20539;-54
2023/09/01 13:49:19;;;;;;;4.32;1.55;;;;;;;;;;5064585;28;20028;-51
2023/09/01 13:51:44;;;;;;;2.95;1.33;;;;;;;;;;5064909;28;20462;-56
2023/09/01 13:54:10;;;;;;;1.75;1.45;;;;;;;;;;5064869;28;20024;-53
2023/09/01 13:56:35;;;;;;;2.35;1.33;;;;;;;;;;5064773;28;20131;-54
2023/09/01 13:59:01;;;;;;;3.10;1.80;;;;;;;;;;5078734;28;20338;-54
2023/09/01 14:01:27;;;;;;;1.60;1.50;;;;;;;;;;5045742;28;20032;-53
2023/09/01 14:03:53;;;;;;;3.53;1.50;;;;;;;;;;5064433;28;20017;-55
2023/09/01 14:06:18;;;;;;;3.47;2.30;;;;;;;;;;5064155;28;20025;-55
2023/09/01 14:08:44;;;;;;;2.60;1.45;;;;;;;;;;5064634;28;20021;-56
2023/09/01 14:11:10;;;;;;;2.17;1.65;;;;;;;;;;5064580;28;20035;-56
2023/09/01 14:13:36;;;;;;;4.28;1.60;;;;;;;;;;5064634;28;20035;-51
2023/09/01 14:16:01;;;;;;;4.35;1.40;;;;;;;;;;5062758;28;20537;-56
2023/09/01 14:18:27;;;;;;;6.90;1.50;;;;;;;;;;5065280;28;20060;-56
2023/09/01 14:20:53;;;;;;;1.70;1.38;;;;;;;;;;5096343;28;20532;-55
2023/09/01 14:23:20;;;;;;;1.50;1.23;;;;;;;;;;5084396;28;20020;-53
2023/09/01 14:25:45;;;;;;;1.85;1.50;;;;;;;;;;5084383;28;20433;-56
2023/09/01 14:28:11;;;;;;;1.55;1.20;;;;;;;;;;5085022;28;20023;-53
2023/09/01 14:30:37;;;;;;;3.17;1.20;;;;;;;;;;5084052;28;20416;-54
2023/09/01 14:33:02;;;;;;;4.57;1.33;;;;;;;;;;5084202;28;20020;-55
2023/09/01 14:35:27;;;;;;;3.33;1.88;;;;;;;;;;5083083;28;20020;-56